Time;durP1;ratioP1;P1;durP2;ratioP2;P2;SDS_P1;SDS_P2;PMS_P1;PMS_P2;Temp;Humidity;BMP_temperature;BMP_pressure;BME280_temperature;BME280_humidity;BME280_pressure;Samples;Min_cycle;Max_cycle;Signal;HPM_P1;HPM_P2
2021/12/23 00:01:39;;;;;;;16.85;9.05;;;0.50;99.90;;;;;;5094494;28;20045;-71
2021/12/23 00:04:06;;;;;;;14.30;9.00;;;0.40;99.90;;;;;;5112798;28;20101;-71
2021/12/23 00:06:31;;;;;;;15.90;9.52;;;0.40;99.90;;;;;;5092502;28;20607;-71
2021/12/23 00:08:59;;;;;;;15.00;8.15;;;0.30;99.90;;;;;;5110834;28;20039;-71
2021/12/23 00:11:25;;;;;;;14.32;9.13;;;0.40;99.90;;;;;;5113534;28;20039;-71
2021/12/23 00:14:01;;;;;;;15.77;9.18;;;0.40;99.90;;;;;;5110195;28;20046;-71
2021/12/23 00:24:39;;;;;;;15.85;9.70;;;0.30;99.90;;;;;;5109661;28;20040;-71
2021/12/23 00:27:06;;;;;;;16.23;9.55;;;0.30;99.90;;;;;;5095990;28;20028;-71
2021/12/23 00:29:31;;;;;;;17.55;9.45;;;0.40;99.90;;;;;;5111571;28;20070;-71
2021/12/23 00:31:58;;;;;;;17.30;10.02;;;0.30;99.90;;;;;;5096147;28;20074;-71
2021/12/23 00:34:24;;;;;;;16.15;9.93;;;0.30;99.90;;;;;;5112222;28;20035;-71
2021/12/23 00:36:51;;;;;;;16.88;10.18;;;0.20;99.90;;;;;;5096162;28;20048;-71
2021/12/23 00:39:17;;;;;;;15.45;9.27;;;0.20;99.90;;;;;;5107964;28;20112;-71
2021/12/23 00:41:44;;;;;;;17.80;9.30;;;0.20;99.90;;;;;;5092664;28;20040;-71
2021/12/23 00:44:11;;;;;;;15.80;8.80;;;0.30;99.90;;;;;;5112340;28;20085;-71
2021/12/23 00:46:37;;;;;;;16.75;9.85;;;0.40;99.90;;;;;;5112982;28;20406;-71
2021/12/23 00:49:02;;;;;;;16.60;9.40;;;0.40;99.90;;;;;;5110685;28;20042;-71
2021/12/23 00:51:29;;;;;;;15.23;9.95;;;0.30;99.90;;;;;;5112759;28;20039;-71
2021/12/23 00:54:04;;;;;;;17.23;9.57;;;0.20;99.90;;;;;;5094937;28;20039;-71
2021/12/23 00:56:30;;;;;;;16.80;9.25;;;0.30;99.90;;;;;;5095506;28;20110;-71
2021/12/23 00:58:56;;;;;;;18.50;10.75;;;0.40;99.90;;;;;;5109731;28;20392;-71
2021/12/23 01:01:21;;;;;;;17.60;11.00;;;0.30;99.90;;;;;;5107130;28;20032;-71
2021/12/23 01:03:47;;;;;;;18.50;10.25;;;0.30;99.90;;;;;;5095437;28;20122;-71
2021/12/23 01:06:13;;;;;;;17.85;9.55;;;0.50;99.90;;;;;;5109779;28;20035;-71
2021/12/23 01:08:38;;;;;;;20.20;11.15;;;0.50;99.90;;;;;;5108617;28;20028;-71
2021/12/23 01:11:04;;;;;;;21.10;11.57;;;0.40;99.90;;;;;;5092050;28;20045;-71
2021/12/23 01:13:30;;;;;;;20.73;11.63;;;0.10;99.90;;;;;;5092694;28;20036;-71
2021/12/23 01:16:06;;;;;;;25.98;12.05;;;0.00;99.90;;;;;;5128450;27;20476;-71
2021/12/23 01:18:43;;;;;;;20.20;11.35;;;0.10;99.90;;;;;;5109735;28;20040;-71
2021/12/23 01:21:16;;;;;;;16.77;10.70;;;0.00;99.90;;;;;;5095569;28;20039;-71
2021/12/23 01:23:48;;;;;;;21.10;12.32;;;0.10;99.90;;;;;;5110238;28;20119;-71
2021/12/23 01:26:18;;;;;;;;;;;0.00;99.90;;;;;;5112493;28;20560;-71
2021/12/23 01:28:46;;;;;;;17.60;11.45;;;0.10;99.90;;;;;;5110429;28;19915;-71
2021/12/23 01:31:12;;;;;;;20.02;11.93;;;0.00;99.90;;;;;;5095245;28;20441;-71
2021/12/23 01:33:38;;;;;;;19.35;11.52;;;0.00;99.90;;;;;;5093522;28;20043;-71
2021/12/23 01:36:04;;;;;;;18.73;11.05;;;0.00;99.90;;;;;;5094127;28;20503;-71
2021/12/23 01:38:29;;;;;;;22.60;12.48;;;0.30;99.90;;;;;;5087679;28;20062;-72
2021/12/23 01:40:55;;;;;;;21.20;12.07;;;0.30;99.90;;;;;;5111851;28;20050;-71
2021/12/23 01:43:21;;;;;;;20.65;12.15;;;0.30;99.90;;;;;;5111186;28;20496;-71
2021/12/23 01:45:49;;;;;;;18.67;11.85;;;0.20;99.90;;;;;;5111742;28;20042;-72
2021/12/23 01:48:15;;;;;;;19.80;12.77;;;0.20;99.90;;;;;;5109192;28;20123;-71
2021/12/23 01:50:41;;;;;;;19.50;11.73;;;0.10;99.90;;;;;;5111536;28;20483;-71
2021/12/23 01:53:07;;;;;;;19.83;11.85;;;0.10;99.90;;;;;;5093702;28;20030;-71
2021/12/23 01:55:35;;;;;;;18.33;12.02;;;-0.20;99.90;;;;;;5094763;28;20118;-71
2021/12/23 01:58:02;;;;;;;16.80;10.57;;;-0.10;99.90;;;;;;5092566;28;20119;-72
2021/12/23 02:00:29;;;;;;;17.85;10.80;;;0.30;99.90;;;;;;5111490;28;20051;-72
2021/12/23 02:02:56;;;;;;;16.58;10.38;;;0.50;99.90;;;;;;5110938;28;20087;-71
2021/12/23 02:05:22;;;;;;;19.05;9.88;;;0.50;99.90;;;;;;5111407;28;20028;-72
2021/12/23 02:07:48;;;;;;;15.15;9.20;;;0.50;99.90;;;;;;5107859;28;20119;-72
2021/12/23 02:10:14;;;;;;;16.50;9.15;;;0.50;99.90;;;;;;5094466;28;20106;-72
2021/12/23 02:12:44;;;;;;;17.17;9.23;;;0.80;99.90;;;;;;5110215;28;20068;-72
2021/12/23 02:15:11;;;;;;;19.83;11.43;;;0.80;99.90;;;;;;5111547;28;20040;-72
2021/12/23 02:17:37;;;;;;;13.55;8.32;;;0.80;99.90;;;;;;5108217;28;20040;-72
2021/12/23 02:20:12;;;;;;;19.77;9.95;;;0.70;99.90;;;;;;5111669;28;20387;-72
2021/12/23 02:22:40;;;;;;;16.10;8.88;;;0.80;99.90;;;;;;5091773;28;20051;-71
2021/12/23 02:25:07;;;;;;;19.27;10.43;;;0.70;99.90;;;;;;5094551;28;20039;-71
2021/12/23 02:27:34;;;;;;;17.45;11.07;;;0.60;99.90;;;;;;5108773;28;20043;-71
2021/12/23 02:30:00;;;;;;;18.83;11.15;;;0.50;99.90;;;;;;5090316;28;20027;-72
2021/12/23 02:32:25;;;;;;;19.23;10.98;;;0.50;99.90;;;;;;5093616;28;20497;-72
2021/12/23 02:34:51;;;;;;;17.70;10.82;;;0.50;99.90;;;;;;5093478;28;20050;-72
2021/12/23 02:37:16;;;;;;;17.25;10.85;;;0.50;99.90;;;;;;5109247;28;20089;-71
2021/12/23 02:39:43;;;;;;;21.23;11.93;;;0.60;99.90;;;;;;5110272;28;20069;-72
2021/12/23 02:42:09;;;;;;;17.55;10.82;;;0.60;99.90;;;;;;5109718;28;20031;-72
2021/12/23 02:44:35;;;;;;;17.85;11.57;;;0.40;99.90;;;;;;5091254;28;20125;-72
2021/12/23 02:47:01;;;;;;;18.40;10.80;;;0.40;99.90;;;;;;5111189;28;20067;-72
2021/12/23 02:49:26;;;;;;;20.33;10.98;;;0.40;99.90;;;;;;5110562;28;20070;-72
2021/12/23 02:51:52;;;;;;;16.98;11.25;;;0.30;99.90;;;;;;5097461;28;20032;-72
2021/12/23 02:54:18;;;;;;;17.70;10.57;;;0.30;99.90;;;;;;5096796;28;20040;-72
2021/12/23 02:56:44;;;;;;;19.63;11.13;;;0.40;99.90;;;;;;5097101;28;20042;-72
2021/12/23 02:59:10;;;;;;;18.00;11.20;;;0.50;99.90;;;;;;5114989;28;20031;-72
2021/12/23 03:01:36;;;;;;;20.85;11.40;;;0.40;99.90;;;;;;5113000;28;20171;-72
2021/12/23 03:04:02;;;;;;;19.77;12.18;;;0.50;99.90;;;;;;5095863;28;20036;-72
2021/12/23 03:06:28;;;;;;;21.45;12.05;;;0.50;99.90;;;;;;5093588;28;20123;-72
2021/12/23 03:08:56;;;;;;;19.67;11.70;;;0.50;99.90;;;;;;5096710;28;20535;-72
2021/12/23 03:11:24;;;;;;;20.30;12.35;;;0.40;99.90;;;;;;5112349;28;20043;-72
2021/12/23 03:13:51;;;;;;;19.35;11.57;;;0.40;99.90;;;;;;5113489;28;20164;-72
2021/12/23 03:16:33;;;;;;;18.20;11.63;;;0.40;99.90;;;;;;5112000;28;20031;-72
2021/12/23 03:18:59;;;;;;;17.60;10.73;;;0.50;99.90;;;;;;5096413;28;20448;-72
2021/12/23 03:21:24;;;;;;;19.15;11.75;;;0.50;99.90;;;;;;5097693;28;20118;-72
2021/12/23 03:23:51;;;;;;;21.15;11.25;;;0.50;99.90;;;;;;5112133;28;20407;-72
2021/12/23 03:26:17;;;;;;;14.43;8.05;;;0.50;99.90;;;;;;5113242;28;20043;-71
2021/12/23 03:28:42;;;;;;;19.27;11.43;;;0.60;99.90;;;;;;5113438;28;20040;-72
2021/12/23 03:31:08;;;;;;;17.50;10.02;;;0.90;99.90;;;;;;5113280;28;20039;-72
2021/12/23 03:33:34;;;;;;;15.85;10.18;;;0.90;99.90;;;;;;5096561;28;20495;-72
2021/12/23 03:36:00;;;;;;;18.80;11.10;;;1.00;99.90;;;;;;5096261;28;20112;-72
2021/12/23 03:38:26;;;;;;;19.02;11.15;;;0.90;99.90;;;;;;5097031;28;20047;-72
2021/12/23 03:40:52;;;;;;;20.58;11.38;;;0.70;99.90;;;;;;5110792;28;20039;-72
2021/12/23 03:43:18;;;;;;;18.90;10.93;;;0.80;99.90;;;;;;5096285;28;20058;-72
2021/12/23 03:45:46;;;;;;;19.63;11.38;;;0.70;99.90;;;;;;5096014;28;20040;-72
2021/12/23 03:48:12;;;;;;;18.80;11.77;;;0.70;99.90;;;;;;5114055;28;20036;-72
2021/12/23 03:50:38;;;;;;;20.63;12.48;;;0.60;99.90;;;;;;5110974;28;20474;-72
2021/12/23 03:53:04;;;;;;;17.98;10.88;;;0.50;99.90;;;;;;5096864;28;20067;-72
2021/12/23 03:55:30;;;;;;;18.50;10.65;;;0.50;99.90;;;;;;5112945;28;20043;-72
2021/12/23 03:57:55;;;;;;;20.35;11.93;;;0.50;99.90;;;;;;5096675;28;20027;-72
2021/12/23 04:00:22;;;;;;;22.33;12.32;;;0.50;99.90;;;;;;5095823;28;20088;-72
2021/12/23 04:02:49;;;;;;;19.40;10.77;;;0.50;99.90;;;;;;5095964;28;20058;-72
2021/12/23 04:05:15;;;;;;;18.45;10.75;;;0.60;99.90;;;;;;5111702;28;20031;-72
2021/12/23 04:07:41;;;;;;;18.00;11.02;;;0.50;99.90;;;;;;5091670;28;20122;-72
2021/12/23 04:10:09;;;;;;;19.65;11.32;;;0.80;99.90;;;;;;5112487;28;20039;-72
2021/12/23 04:12:34;;;;;;;19.00;11.88;;;0.70;99.90;;;;;;5096450;28;20057;-72
2021/12/23 04:15:00;;;;;;;19.20;11.77;;;0.70;99.90;;;;;;5094156;28;20031;-72
2021/12/23 04:17:26;;;;;;;19.70;11.77;;;0.60;99.90;;;;;;5108747;28;20039;-72
2021/12/23 04:19:51;;;;;;;19.20;11.52;;;0.60;99.90;;;;;;5113489;28;20114;-72
2021/12/23 04:22:17;;;;;;;20.30;12.30;;;0.50;99.90;;;;;;5110620;28;20035;-72
2021/12/23 04:24:42;;;;;;;20.17;12.10;;;0.60;99.90;;;;;;5112237;28;20032;-72
2021/12/23 04:27:08;;;;;;;17.27;10.77;;;0.60;99.90;;;;;;5111499;28;20073;-72
2021/12/23 04:29:34;;;;;;;20.55;11.50;;;0.70;99.90;;;;;;5096169;28;20031;-72
2021/12/23 04:32:00;;;;;;;19.95;11.85;;;0.80;99.90;;;;;;5112330;28;20088;-72
2021/12/23 04:34:26;;;;;;;20.90;11.90;;;0.60;99.90;;;;;;5112262;28;20040;-72
2021/12/23 04:36:52;;;;;;;19.23;11.85;;;0.60;99.90;;;;;;5095645;28;20058;-72
2021/12/23 04:39:17;;;;;;;19.08;11.32;;;0.60;99.90;;;;;;5146090;27;20422;-72
2021/12/23 04:41:43;;;;;;;21.13;11.98;;;0.70;99.90;;;;;;5094824;28;20035;-72
2021/12/23 04:44:09;;;;;;;17.95;9.98;;;0.80;99.90;;;;;;5092745;28;20071;-71
2021/12/23 04:46:34;;;;;;;19.25;11.60;;;1.00;99.90;;;;;;5095827;28;20070;-72
2021/12/23 04:49:00;;;;;;;21.23;12.02;;;1.10;99.90;;;;;;5111469;28;20484;-72
2021/12/23 04:51:26;;;;;;;20.33;12.32;;;0.90;99.90;;;;;;5095708;28;20039;-72
2021/12/23 04:53:51;;;;;;;20.30;11.75;;;0.80;99.90;;;;;;5110960;28;20479;-72
2021/12/23 04:56:18;;;;;;;16.83;10.50;;;0.70;99.90;;;;;;5095881;28;20475;-72
2021/12/23 04:58:44;;;;;;;19.63;11.30;;;0.90;99.90;;;;;;5111142;28;20063;-72
2021/12/23 05:01:19;;;;;;;19.85;12.20;;;0.90;99.90;;;;;;5095577;28;20031;-72
2021/12/23 05:03:47;;;;;;;19.40;10.82;;;1.00;99.90;;;;;;5092672;28;20027;-72
2021/12/23 05:06:15;;;;;;;20.05;11.13;;;1.00;99.90;;;;;;5112437;28;20042;-72
2021/12/23 05:08:41;;;;;;;18.83;11.45;;;0.90;99.90;;;;;;5109249;28;20040;-72
2021/12/23 05:11:06;;;;;;;20.65;10.52;;;1.00;99.90;;;;;;5112496;28;20044;-71
2021/12/23 05:13:32;;;;;;;16.95;10.32;;;1.00;99.90;;;;;;5093126;28;20471;-71
2021/12/23 05:15:58;;;;;;;18.67;10.10;;;1.00;99.90;;;;;;5111967;28;20119;-72
2021/12/23 05:18:23;;;;;;;16.63;8.27;;;1.00;99.90;;;;;;5110400;28;20035;-72
2021/12/23 05:20:49;;;;;;;15.45;8.75;;;1.00;99.90;;;;;;5095358;28;20043;-71
2021/12/23 05:23:15;;;;;;;17.55;10.02;;;1.00;99.90;;;;;;5110625;28;20063;-72
2021/12/23 05:25:41;;;;;;;16.25;8.50;;;1.00;99.90;;;;;;5112042;28;20427;-71
2021/12/23 05:28:07;;;;;;;15.80;8.38;;;1.00;99.90;;;;;;5110631;28;20059;-71
2021/12/23 05:30:32;;;;;;;12.90;7.45;;;1.00;99.90;;;;;;5092279;28;20031;-72
2021/12/23 05:32:58;;;;;;;16.40;9.05;;;1.00;99.90;;;;;;5092496;28;20046;-71
2021/12/23 05:35:24;;;;;;;17.42;10.20;;;1.00;99.90;;;;;;5145838;27;20488;-71
2021/12/23 05:37:51;;;;;;;13.77;7.70;;;1.00;99.90;;;;;;5092324;28;20039;-72
2021/12/23 05:40:20;;;;;;;19.45;10.77;;;0.90;99.90;;;;;;5094647;28;20045;-71
2021/12/23 05:42:46;;;;;;;17.13;9.60;;;0.90;99.90;;;;;;5094139;28;20043;-72
2021/12/23 05:45:13;;;;;;;20.60;11.68;;;0.90;99.90;;;;;;5093258;28;20039;-72
2021/12/23 05:47:39;;;;;;;19.77;12.50;;;0.80;99.90;;;;;;5094787;28;20032;-72
2021/12/23 05:50:06;;;;;;;21.58;10.68;;;0.70;99.90;;;;;;5094160;28;20026;-72
2021/12/23 05:52:31;;;;;;;20.13;10.45;;;0.80;99.90;;;;;;5111732;28;20050;-72
2021/12/23 05:54:57;;;;;;;20.40;11.65;;;0.90;99.90;;;;;;5110833;28;20395;-72
2021/12/23 05:57:24;;;;;;;19.38;11.52;;;0.90;99.90;;;;;;5111718;28;20135;-72
2021/12/23 05:59:49;;;;;;;20.70;12.75;;;0.90;99.90;;;;;;5110804;28;20043;-72
2021/12/23 06:02:15;;;;;;;20.80;12.77;;;0.90;99.90;;;;;;5107229;28;20036;-72
2021/12/23 06:04:41;;;;;;;18.95;12.48;;;0.80;99.90;;;;;;5094565;28;20032;-72
2021/12/23 06:07:06;;;;;;;20.55;12.85;;;0.80;99.90;;;;;;5092737;28;20484;-72
2021/12/23 06:09:32;;;;;;;19.60;11.73;;;0.80;99.90;;;;;;5111575;28;20544;-72
2021/12/23 06:11:58;;;;;;;21.05;12.38;;;0.80;99.90;;;;;;5110542;28;20036;-72
2021/12/23 06:14:24;;;;;;;18.70;11.57;;;0.70;99.90;;;;;;5111736;28;20035;-72
2021/12/23 06:16:49;;;;;;;21.38;12.20;;;0.80;99.90;;;;;;5110686;28;20040;-72
2021/12/23 06:19:15;;;;;;;20.00;12.27;;;0.80;99.90;;;;;;5094839;28;20101;-72
2021/12/23 06:21:41;;;;;;;21.80;12.10;;;0.90;99.90;;;;;;5110515;28;20051;-72
2021/12/23 06:24:06;;;;;;;18.75;11.05;;;0.80;99.90;;;;;;5126064;28;20083;-72
2021/12/23 06:26:32;;;;;;;18.92;11.73;;;0.90;99.90;;;;;;5096896;28;20027;-72
2021/12/23 06:28:58;;;;;;;22.70;12.45;;;0.80;99.90;;;;;;5115583;28;20032;-72
2021/12/23 06:31:25;;;;;;;20.67;12.93;;;0.70;99.90;;;;;;5097712;28;20035;-72
2021/12/23 06:33:51;;;;;;;17.77;10.68;;;0.70;99.90;;;;;;5098626;28;20429;-72
2021/12/23 06:36:17;;;;;;;21.45;12.82;;;0.90;99.90;;;;;;5097672;28;20081;-72
2021/12/23 06:38:44;;;;;;;21.05;12.20;;;1.00;99.90;;;;;;5112153;28;20043;-72
2021/12/23 06:41:10;;;;;;;19.42;11.10;;;0.90;99.90;;;;;;5097355;28;20032;-72
2021/12/23 06:43:36;;;;;;;20.30;13.43;;;1.00;99.90;;;;;;5097127;28;20023;-72
2021/12/23 06:46:03;;;;;;;20.98;12.45;;;1.00;99.90;;;;;;5097000;28;20071;-72
2021/12/23 06:48:29;;;;;;;19.98;11.57;;;1.00;99.90;;;;;;5096791;28;20031;-72
2021/12/23 06:50:56;;;;;;;21.27;10.70;;;1.10;99.90;;;;;;5115081;28;20043;-72
2021/12/23 06:53:22;;;;;;;16.98;8.85;;;1.10;99.90;;;;;;5096296;28;20032;-72
2021/12/23 06:55:50;;;;;;;20.90;11.27;;;1.10;99.90;;;;;;5098311;28;20028;-72
2021/12/23 06:58:17;;;;;;;20.17;11.52;;;1.20;99.90;;;;;;5096853;28;20529;-72
2021/12/23 07:00:43;;;;;;;19.27;11.27;;;1.30;99.90;;;;;;5097909;28;20042;-72
2021/12/23 07:03:08;;;;;;;26.38;12.93;;;1.20;99.90;;;;;;5096743;28;20039;-72
2021/12/23 07:05:34;;;;;;;20.42;13.68;;;1.00;99.90;;;;;;5097623;28;20146;-72
2021/12/23 07:08:10;;;;;;;21.23;11.45;;;1.00;99.90;;;;;;5111659;28;20089;-72
2021/12/23 07:10:37;;;;;;;13.70;7.55;;;1.00;99.90;;;;;;5147533;27;20032;-71
2021/12/23 07:13:03;;;;;;;20.38;11.88;;;1.20;99.90;;;;;;5094548;28;20458;-71
2021/12/23 07:15:30;;;;;;;20.20;12.00;;;1.20;99.90;;;;;;5114665;28;20055;-72
2021/12/23 07:17:57;;;;;;;22.70;13.60;;;1.20;99.90;;;;;;5096588;28;20042;-72
2021/12/23 07:20:25;;;;;;;20.88;12.40;;;1.10;99.90;;;;;;5111643;28;20038;-72
2021/12/23 07:22:51;;;;;;;22.30;12.98;;;1.00;99.90;;;;;;5094601;28;20035;-72
2021/12/23 07:25:17;;;;;;;21.35;13.65;;;1.00;99.90;;;;;;5088613;28;20442;-72
2021/12/23 07:27:44;;;;;;;23.65;14.00;;;1.00;99.90;;;;;;5095771;28;20034;-72
2021/12/23 07:30:13;;;;;;;23.95;14.85;;;0.90;99.90;;;;;;5094755;28;20035;-72
2021/12/23 07:32:38;;;;;;;24.33;13.25;;;0.90;99.90;;;;;;5111621;28;20089;-72
2021/12/23 07:35:05;;;;;;;22.75;13.18;;;1.10;99.90;;;;;;5129476;27;20056;-72
2021/12/23 07:37:31;;;;;;;23.75;14.32;;;1.00;99.90;;;;;;5111201;28;20047;-72
2021/12/23 07:39:57;;;;;;;27.13;15.38;;;1.10;99.90;;;;;;5112133;28;20100;-72
2021/12/23 07:42:25;;;;;;;21.40;12.82;;;1.00;99.90;;;;;;5080320;28;20047;-72
2021/12/23 07:44:52;;;;;;;24.67;15.07;;;1.00;99.90;;;;;;5113873;28;20522;-72
2021/12/23 07:47:18;;;;;;;23.10;13.10;;;1.00;99.90;;;;;;5113658;28;20406;-72
2021/12/23 07:49:43;;;;;;;21.75;13.40;;;1.10;99.90;;;;;;5111206;28;20035;-72
2021/12/23 07:52:09;;;;;;;25.63;12.40;;;1.10;99.90;;;;;;5113335;28;20460;-72
2021/12/23 07:54:35;;;;;;;23.75;14.55;;;1.20;99.90;;;;;;5096251;28;20038;-72
2021/12/23 07:57:02;;;;;;;20.77;12.27;;;1.20;99.90;;;;;;5113283;28;20118;-72
2021/12/23 07:59:28;;;;;;;22.33;12.80;;;1.20;99.90;;;;;;5112293;28;20583;-72
2021/12/23 08:01:55;;;;;;;24.38;13.00;;;1.20;99.90;;;;;;5109901;28;20089;-72
2021/12/23 08:04:21;;;;;;;24.90;12.77;;;1.10;99.90;;;;;;5094674;28;20031;-71
2021/12/23 08:06:52;;;;;;;21.77;11.60;;;1.20;99.90;;;;;;5091515;28;20028;-72
2021/12/23 08:09:17;;;;;;;22.48;13.18;;;1.20;99.90;;;;;;5091543;28;20036;-71
2021/12/23 08:11:43;;;;;;;24.88;12.20;;;1.30;99.90;;;;;;5110231;27;20042;-72
2021/12/23 08:14:08;;;;;;;20.42;11.35;;;1.30;99.90;;;;;;5076271;28;20068;-71
2021/12/23 08:16:34;;;;;;;26.25;14.25;;;1.20;99.90;;;;;;5077811;28;20039;-71
2021/12/23 08:18:59;;;;;;;18.75;9.95;;;1.10;99.90;;;;;;5111684;27;20089;-71
2021/12/23 08:21:28;;;;;;;23.30;14.38;;;1.20;99.90;;;;;;5137256;27;20031;-71
2021/12/23 08:23:54;;;;;;;15.48;9.23;;;1.10;99.90;;;;;;5110608;28;20043;-72
2021/12/23 08:26:27;;;;;;;20.50;12.07;;;1.10;99.90;;;;;;5104379;28;20085;-72
2021/12/23 08:28:52;;;;;;;;;;;1.10;99.90;;;;;;5107540;28;20513;-71
2021/12/23 08:31:20;;;;;;;19.05;9.18;;;1.20;99.90;;;;;;5106746;28;19915;-72
2021/12/23 08:33:46;;;;;;;27.55;15.20;;;1.10;99.90;;;;;;5140711;27;20031;-72
2021/12/23 08:36:12;;;;;;;17.75;9.25;;;1.10;99.90;;;;;;5090932;28;20046;-72
2021/12/23 08:38:40;;;;;;;17.80;11.40;;;1.10;99.90;;;;;;5092600;28;20142;-71
2021/12/23 08:41:06;;;;;;;21.25;11.07;;;1.10;99.90;;;;;;5106076;28;20059;-72
2021/12/23 08:43:31;;;;;;;23.02;12.65;;;1.10;99.90;;;;;;5090019;28;20480;-71
2021/12/23 08:45:57;;;;;;;22.33;11.93;;;1.20;99.90;;;;;;5089395;28;20118;-79
2021/12/23 08:48:22;;;;;;;18.92;10.82;;;1.10;99.90;;;;;;5108612;28;20039;-71
2021/12/23 08:50:48;;;;;;;28.45;15.13;;;1.20;99.90;;;;;;5123410;27;20035;-71
2021/12/23 08:53:13;;;;;;;24.30;14.40;;;1.20;99.90;;;;;;5095054;28;20501;-71
2021/12/23 09:40:03;;;;;;;;;;;1.10;99.90;;;;;;5069828;28;20035;-71
2021/12/23 09:42:32;;;;;;;24.25;13.02;;;1.10;99.90;;;;;;5106520;27;19973;-71
2021/12/23 09:45:03;;;;;;;31.65;16.65;;;1.10;99.90;;;;;;5079160;28;20038;-71
2021/12/23 09:47:31;;;;;;;27.77;15.20;;;1.10;99.90;;;;;;5112337;28;20051;-71
2021/12/23 09:49:59;;;;;;;29.42;16.33;;;1.20;99.90;;;;;;5107510;28;20039;-71
2021/12/23 09:52:30;;;;;;;28.85;15.75;;;1.20;99.90;;;;;;5110467;28;20390;-71
2021/12/23 09:54:57;;;;;;;31.58;18.70;;;1.30;99.90;;;;;;5102118;28;20031;-71
2021/12/23 09:57:23;;;;;;;30.30;16.48;;;1.20;99.90;;;;;;5108192;28;20074;-71
2021/12/23 09:59:49;;;;;;;29.77;16.80;;;1.20;99.90;;;;;;5101226;28;20031;-71
2021/12/23 10:02:15;;;;;;;29.52;17.08;;;1.20;99.90;;;;;;5123831;28;20552;-71
2021/12/23 10:04:41;;;;;;;30.42;16.98;;;1.20;99.90;;;;;;5099506;28;20388;-71
2021/12/23 10:07:07;;;;;;;36.78;17.73;;;1.20;99.90;;;;;;5127479;28;20040;-71
2021/12/23 10:31:35;;;;;;;32.55;18.05;;;1.30;99.90;;;;;;5110480;28;20048;-72
2021/12/23 10:39:39;;;;;;;37.03;21.23;;;1.40;99.90;;;;;;5106103;28;20392;-72
2021/12/23 10:42:17;;;;;;;40.42;20.13;;;1.40;99.90;;;;;;5102145;28;20052;-72
2021/12/23 10:44:58;;;;;;;36.13;18.50;;;1.40;99.90;;;;;;5084624;28;20036;-72
2021/12/23 10:47:33;;;;;;;36.17;19.13;;;1.40;99.90;;;;;;5091496;28;20074;-72
2021/12/23 10:50:14;;;;;;;36.63;19.52;;;1.40;99.90;;;;;;5099127;28;20040;-72
2021/12/23 10:52:55;;;;;;;38.22;20.58;;;1.30;99.90;;;;;;5111095;28;20134;-72
2021/12/23 10:58:08;;;;;;;36.08;18.65;;;1.40;99.90;;;;;;5109613;28;20403;-72
2021/12/23 11:00:41;;;;;;;32.13;16.35;;;1.40;99.90;;;;;;5090170;28;20036;-72
2021/12/23 11:05:49;;;;;;;40.22;19.33;;;1.40;99.90;;;;;;5110897;28;20042;-72
2021/12/23 11:08:22;;;;;;;40.42;20.15;;;1.40;99.90;;;;;;5108520;28;20039;-72
2021/12/23 11:38:35;;;;;;;33.92;17.63;;;1.60;99.90;;;;;;5112072;28;20491;-72
2021/12/23 11:41:16;;;;;;;40.35;22.98;;;1.60;99.90;;;;;;5112049;28;20551;-72
2021/12/23 11:43:48;;;;;;;35.72;19.20;;;1.50;99.90;;;;;;5106876;28;20052;-72
2021/12/23 11:46:22;;;;;;;32.72;16.85;;;1.40;99.90;;;;;;5108184;28;20492;-72
2021/12/23 11:48:52;;;;;;;38.55;21.20;;;1.50;99.90;;;;;;5112706;28;20089;-72
2021/12/23 11:51:28;;;;;;;38.97;21.88;;;1.40;99.90;;;;;;5097760;28;20115;-72
2021/12/23 11:53:54;;;;;;;35.15;18.75;;;1.50;99.90;;;;;;5116693;27;20405;-72
2021/12/23 11:56:21;;;;;;;25.10;13.43;;;1.60;99.90;;;;;;5097613;27;20040;-72
2021/12/23 11:58:49;;;;;;;35.38;20.17;;;1.50;99.90;;;;;;5106491;28;20511;-71
2021/12/23 12:01:21;;;;;;;33.55;17.65;;;1.50;99.90;;;;;;5095543;28;20419;-71
2021/12/23 12:04:03;;;;;;;28.88;14.48;;;1.60;99.90;;;;;;5086092;28;20499;-72
2021/12/23 12:06:39;;;;;;;29.58;14.48;;;1.60;99.90;;;;;;5096130;28;20047;-71
2021/12/23 12:09:12;;;;;;;35.35;18.90;;;1.60;99.90;;;;;;5084823;28;20047;-71
2021/12/23 12:11:39;;;;;;;32.78;17.42;;;1.60;99.90;;;;;;5086831;28;20043;-71
2021/12/23 12:14:40;;;;;;;37.13;19.55;;;1.60;99.90;;;;;;5110380;27;20500;-71
2021/12/23 12:17:26;;;;;;;27.98;15.50;;;1.60;99.90;;;;;;5080242;28;20044;-71
2021/12/23 12:20:12;;;;;;;37.25;18.90;;;1.60;99.90;;;;;;5097556;28;20522;-71
2021/12/23 12:23:13;;;;;;;31.45;15.27;;;1.60;99.90;;;;;;5094354;28;20127;-71
2021/12/23 12:25:40;;;;;;;38.10;20.70;;;1.60;99.90;;;;;;5111971;27;20415;-71
2021/12/23 12:28:06;;;;;;;36.17;19.80;;;1.50;99.90;;;;;;5076271;28;20484;-71
2021/12/23 12:30:43;;;;;;;42.90;23.77;;;1.50;99.90;;;;;;5088877;28;20088;-71
2021/12/23 12:33:41;;;;;;;36.72;19.17;;;1.50;99.90;;;;;;5114080;28;20043;-71
2021/12/23 12:36:11;;;;;;;38.15;19.27;;;1.60;99.90;;;;;;5113681;28;20039;-71
2021/12/23 12:38:46;;;;;;;37.75;19.55;;;1.60;99.90;;;;;;5113738;28;20047;-71
2021/12/23 12:41:25;;;;;;;31.90;16.67;;;1.60;99.90;;;;;;5113533;28;20580;-71
2021/12/23 12:43:57;;;;;;;40.63;21.17;;;1.70;99.90;;;;;;5100466;28;20071;-71
2021/12/23 12:46:51;;;;;;;;;;;1.70;99.90;;;;;;5109872;28;20111;-71
2021/12/23 12:49:38;;;;;;;36.75;17.35;;;1.60;99.90;;;;;;5076978;28;19927;-71
2021/12/23 12:52:11;;;;;;;36.53;17.48;;;1.60;99.90;;;;;;5127244;27;20047;-71
2021/12/23 12:54:53;;;;;;;33.60;18.42;;;1.80;99.90;;;;;;5103040;28;20043;-71
2021/12/23 12:57:22;;;;;;;32.05;16.77;;;1.70;99.90;;;;;;5109255;28;20373;-70
2021/12/23 12:59:49;;;;;;;35.95;18.77;;;1.70;99.90;;;;;;5096257;28;20040;-71
2021/12/23 13:02:24;;;;;;;35.67;19.20;;;1.70;99.90;;;;;;5096256;28;20168;-70
2021/12/23 13:04:57;;;;;;;35.42;19.02;;;1.70;99.90;;;;;;5112911;28;20039;-70
2021/12/23 13:07:26;;;;;;;37.28;19.48;;;1.80;99.90;;;;;;5096132;28;20089;-70
2021/12/23 13:10:06;;;;;;;32.08;16.02;;;1.70;99.90;;;;;;5096759;28;20036;-71
2021/12/23 13:12:53;;;;;;;32.75;16.75;;;1.80;99.90;;;;;;5088867;28;20036;-71
2021/12/23 13:15:30;;;;;;;35.60;18.70;;;1.70;99.90;;;;;;5092833;28;20047;-71
2021/12/23 13:17:57;;;;;;;40.65;22.63;;;1.80;99.90;;;;;;5098511;27;20078;-71
2021/12/23 13:20:56;;;;;;;34.45;17.67;;;1.70;99.90;;;;;;5074362;28;20040;-71
2021/12/23 13:23:40;;;;;;;38.28;19.73;;;1.80;99.90;;;;;;5077335;28;20047;-71
2021/12/23 13:26:12;;;;;;;40.13;19.63;;;1.70;99.90;;;;;;5108201;28;20092;-71
2021/12/23 13:28:47;;;;;;;39.83;20.23;;;1.70;99.90;;;;;;5101556;28;20492;-71
2021/12/23 13:31:17;;;;;;;36.20;18.67;;;1.70;99.90;;;;;;5110260;27;20032;-71
2021/12/23 13:33:53;;;;;;;35.97;17.63;;;1.70;99.90;;;;;;5098747;28;20032;-71
2021/12/23 13:36:23;;;;;;;37.10;19.02;;;1.80;99.90;;;;;;5107547;27;20050;-71
2021/12/23 13:39:00;;;;;;;37.40;20.17;;;1.70;99.90;;;;;;5090377;28;20408;-71
2021/12/23 13:41:39;;;;;;;37.88;21.55;;;1.70;99.90;;;;;;5123978;27;20127;-71
2021/12/23 13:44:14;;;;;;;40.05;20.23;;;1.80;99.90;;;;;;5102203;28;20047;-71
2021/12/23 13:46:40;;;;;;;36.38;20.13;;;1.70;99.90;;;;;;5092373;28;20043;-71
2021/12/23 13:49:07;;;;;;;37.25;20.02;;;1.70;99.90;;;;;;5110715;28;20057;-71
2021/12/23 13:51:42;;;;;;;39.17;20.75;;;1.70;99.90;;;;;;5100633;28;20039;-71
2021/12/23 13:54:14;;;;;;;40.15;20.42;;;1.80;99.90;;;;;;5089501;28;20032;-71
2021/12/23 13:56:47;;;;;;;;;;;1.70;99.90;;;;;;5086958;28;20044;-71
2021/12/23 13:59:26;;;;;;;44.55;24.75;;;1.70;99.90;;;;;;5105428;28;19916;-71
2021/12/23 14:02:04;;;;;;;37.67;20.02;;;1.60;99.90;;;;;;5089481;28;20047;-71
2021/12/23 14:04:34;;;;;;;38.63;20.48;;;1.60;99.90;;;;;;5090946;28;20429;-71
2021/12/23 14:07:01;;;;;;;40.17;22.10;;;1.70;99.90;;;;;;5094705;28;20047;-71
2021/12/23 14:09:35;;;;;;;36.20;20.67;;;1.50;99.90;;;;;;5075989;28;20089;-71
2021/12/23 14:12:01;;;;;;;43.08;22.48;;;1.50;99.90;;;;;;5110281;28;20043;-70
2021/12/23 14:14:27;;;;;;;39.53;21.50;;;1.60;99.90;;;;;;5107343;28;20259;-69
2021/12/23 14:16:53;;;;;;;37.47;19.48;;;1.60;99.90;;;;;;5089164;28;20043;-70
2021/12/23 14:19:48;;;;;;;39.28;20.73;;;1.80;99.90;;;;;;5073458;28;20036;-72
2021/12/23 14:24:59;;;;;;;40.13;20.88;;;1.90;99.90;;;;;;5096756;28;20551;-71
2021/12/23 14:27:25;;;;;;;40.38;21.25;;;1.80;99.90;;;;;;5116707;28;20492;-71
2021/12/23 14:30:02;;;;;;;38.47;20.27;;;1.90;99.90;;;;;;5125134;27;20032;-78
2021/12/23 14:32:28;;;;;;;38.72;20.65;;;1.90;99.90;;;;;;5105423;28;20048;-78
2021/12/23 14:34:53;;;;;;;41.60;21.98;;;1.90;99.90;;;;;;5142328;27;20507;-76
2021/12/23 14:37:19;;;;;;;41.38;20.80;;;1.90;99.90;;;;;;5126761;28;20109;-70
2021/12/23 14:39:45;;;;;;;41.28;21.48;;;1.80;99.90;;;;;;5137664;27;20050;-70
2021/12/23 14:42:14;;;;;;;36.78;18.50;;;1.90;99.90;;;;;;5107115;28;20474;-70
2021/12/23 14:44:40;;;;;;;38.65;20.63;;;2.00;99.90;;;;;;5098896;28;20044;-78